createdAt,value
2023-01-11T00:02:10.397Z,8.18
2023-01-11T00:04:55.916Z,7.90
2023-01-11T00:07:41.066Z,7.55
2023-01-11T00:10:27.122Z,7.78
2023-01-11T00:13:14.165Z,6.57
2023-01-11T00:16:06.840Z,7.00
2023-01-11T00:18:52.132Z,6.80
2023-01-11T00:21:37.651Z,6.65
2023-01-11T00:24:23.264Z,6.32
2023-01-11T00:27:08.653Z,5.47
2023-01-11T00:29:54.124Z,6.38
2023-01-11T00:32:39.573Z,5.63
2023-01-11T00:35:25.776Z,5.00
2023-01-11T00:38:31.416Z,5.43
2023-01-11T00:41:36.734Z,4.72
2023-01-11T00:44:40.846Z,4.78
2023-01-11T00:47:44.622Z,5.03
2023-01-11T00:50:33.137Z,5.10
2023-01-11T00:53:19.494Z,4.95
2023-01-11T00:56:05.045Z,4.80
2023-01-11T00:58:50.467Z,5.35
2023-01-11T01:01:36.404Z,4.75
2023-01-11T01:04:21.649Z,3.97
2023-01-11T01:07:08.056Z,5.97
2023-01-11T01:09:53.354Z,5.80
2023-01-11T01:12:57.399Z,4.47
2023-01-11T01:15:42.873Z,4.18
2023-01-11T01:18:28.268Z,4.25
2023-01-11T01:21:13.675Z,4.18
2023-01-11T01:23:59.180Z,4.28
2023-01-11T01:26:44.683Z,3.90
2023-01-11T01:29:30.087Z,4.75
2023-01-11T01:32:15.607Z,5.00
2023-01-11T01:35:01.002Z,4.10
2023-01-11T01:37:46.634Z,4.43
2023-01-11T01:40:32.064Z,4.80
2023-01-11T01:43:18.513Z,4.10
2023-01-11T01:46:04.206Z,3.92
2023-01-11T01:48:55.250Z,3.70
2023-01-11T01:51:44.138Z,4.38
2023-01-11T01:54:35.574Z,4.30
2023-01-11T01:57:25.355Z,4.07
2023-01-11T02:00:11.444Z,3.67
2023-01-11T02:02:58.974Z,3.92
2023-01-11T02:05:45.338Z,3.65
2023-01-11T02:08:36.969Z,4.05
2023-01-11T02:11:31.898Z,3.97
2023-01-11T02:14:20.217Z,4.03
2023-01-11T02:17:05.994Z,4.35
2023-01-11T02:19:57.266Z,4.05
2023-01-11T02:23:03.689Z,3.38
2023-01-11T02:26:15.089Z,3.60
2023-01-11T02:29:24.035Z,3.03
2023-01-11T02:32:41.610Z,2.22
2023-01-11T02:35:30.029Z,1.70
2023-01-11T02:38:37.350Z,1.73
2023-01-11T02:41:58.641Z,1.98
2023-01-11T02:45:02.392Z,2.15
2023-01-11T02:48:16.535Z,3.10
2023-01-11T02:51:14.857Z,2.53
2023-01-11T02:54:05.874Z,1.90
2023-01-11T02:56:56.226Z,2.63
2023-01-11T02:59:42.866Z,2.58
2023-01-11T03:02:29.093Z,3.17
2023-01-11T03:05:15.081Z,2.47
2023-01-11T03:08:22.533Z,2.80
2023-01-11T03:11:14.543Z,2.88
2023-01-11T03:14:22.694Z,2.60
2023-01-11T03:17:33.746Z,2.30
2023-01-11T03:20:25.433Z,2.55
2023-01-11T03:23:22.312Z,2.60
2023-01-11T03:26:16.562Z,2.65
2023-01-11T03:29:19.693Z,2.88
2023-01-11T03:32:22.417Z,3.03
2023-01-11T03:35:33.064Z,2.85
2023-01-11T03:38:24.892Z,3.20
2023-01-11T03:41:16.403Z,3.05
2023-01-11T03:44:05.319Z,2.50
2023-01-11T03:46:55.451Z,3.33
2023-01-11T03:49:47.464Z,2.90
2023-01-11T03:52:37.392Z,2.85
2023-01-11T03:55:26.489Z,3.08
2023-01-11T03:58:12.025Z,3.33
2023-01-11T04:00:58.653Z,3.17
2023-01-11T04:03:44.116Z,2.85
2023-01-11T04:06:31.342Z,3.38
2023-01-11T04:09:16.717Z,2.92
2023-01-11T04:12:02.362Z,2.88
2023-01-11T04:14:47.930Z,2.90
2023-01-11T04:17:33.464Z,3.13
2023-01-11T04:20:18.943Z,2.97
2023-01-11T04:23:05.833Z,3.03
2023-01-11T04:25:51.551Z,3.83
2023-01-11T04:28:37.101Z,2.83
2023-01-11T04:31:22.610Z,3.13
2023-01-11T04:34:08.001Z,3.15
2023-01-11T04:36:53.560Z,3.85
2023-01-11T04:39:39.050Z,3.00
2023-01-11T04:42:25.891Z,2.95
2023-01-11T04:45:11.158Z,3.25
2023-01-11T04:47:57.807Z,3.25
2023-01-11T04:50:43.043Z,3.10
2023-01-11T04:53:28.423Z,2.65
2023-01-11T04:56:13.890Z,2.92
2023-01-11T04:58:59.394Z,2.60
2023-01-11T05:01:44.992Z,2.90
2023-01-11T05:04:30.512Z,2.70
2023-01-11T05:07:15.791Z,2.85
2023-01-11T05:10:01.777Z,2.80
2023-01-11T05:12:47.374Z,3.30
2023-01-11T05:15:34.852Z,2.60
2023-01-11T05:18:20.359Z,3.13
2023-01-11T05:21:06.459Z,2.28
2023-01-11T05:23:52.158Z,3.28
2023-01-11T05:26:39.846Z,2.47
2023-01-11T05:29:25.121Z,2.58
2023-01-11T05:32:12.189Z,3.20
2023-01-11T05:34:57.363Z,2.40
2023-01-11T05:37:42.809Z,3.15
2023-01-11T05:40:28.406Z,2.67
2023-01-11T05:43:13.987Z,2.38
2023-01-11T05:46:00.860Z,2.08
2023-01-11T05:48:46.283Z,2.45
2023-01-11T05:51:32.628Z,3.40
2023-01-11T05:54:17.870Z,2.67
2023-01-11T05:57:03.502Z,2.90
2023-01-11T05:59:49.102Z,2.47
2023-01-11T06:02:35.356Z,2.70
2023-01-11T06:05:20.808Z,2.63
2023-01-11T06:08:06.354Z,2.35
2023-01-11T06:10:56.231Z,2.08
2023-01-11T06:13:41.966Z,2.30
2023-01-11T06:16:27.490Z,2.50
2023-01-11T06:19:12.596Z,2.25
2023-01-11T06:21:57.906Z,2.80
2023-01-11T06:24:43.493Z,2.20
2023-01-11T06:27:28.791Z,2.67
2023-01-11T06:30:14.361Z,2.20
2023-01-11T06:33:06.180Z,2.63
2023-01-11T06:35:52.506Z,2.17
2023-01-11T06:38:38.424Z,2.35
2023-01-11T06:41:23.907Z,2.40
2023-01-11T06:44:09.126Z,2.53
2023-01-11T06:46:54.513Z,2.42
2023-01-11T06:49:40.110Z,2.40
2023-01-11T06:52:25.729Z,2.13
2023-01-11T06:55:11.354Z,2.58
2023-01-11T06:57:57.318Z,2.33
2023-01-11T07:00:42.937Z,2.17
2023-01-11T07:03:28.663Z,2.50
2023-01-11T07:06:14.100Z,2.05
2023-01-11T07:08:59.926Z,2.92
2023-01-11T07:11:44.905Z,2.35
2023-01-11T07:14:30.186Z,2.50
2023-01-11T07:17:15.733Z,2.38
2023-01-11T07:20:00.921Z,2.40
2023-01-11T07:22:46.597Z,2.75
2023-01-11T07:25:31.841Z,2.25
2023-01-11T07:28:17.514Z,2.03
2023-01-11T07:31:02.826Z,2.80
2023-01-11T07:33:48.449Z,2.90
2023-01-11T07:36:39.314Z,2.63
2023-01-11T07:39:34.782Z,2.95
2023-01-11T07:42:46.436Z,2.45
2023-01-11T07:45:44.667Z,3.15
2023-01-11T07:48:30.952Z,2.38
2023-01-11T07:51:20.432Z,2.20
2023-01-11T07:54:06.195Z,2.42
2023-01-11T07:56:51.914Z,2.75
2023-01-11T07:59:37.905Z,2.65
2023-01-11T08:02:23.985Z,2.63
2023-01-11T08:05:10.135Z,2.42
2023-01-11T08:07:55.868Z,3.00
2023-01-11T08:10:42.250Z,2.97
2023-01-11T08:13:46.586Z,3.47
2023-01-11T08:16:31.995Z,2.80
2023-01-11T08:19:17.574Z,2.35
2023-01-11T08:22:03.048Z,2.78
2023-01-11T08:24:48.605Z,2.80
2023-01-11T08:27:34.264Z,2.50
2023-01-11T08:30:19.873Z,2.47
2023-01-11T08:33:05.984Z,2.67
2023-01-11T08:35:51.461Z,2.65
2023-01-11T08:38:37.318Z,3.20
2023-01-11T08:41:24.108Z,3.38
2023-01-11T08:44:11.690Z,3.10
2023-01-11T08:46:57.252Z,2.60
2023-01-11T08:49:43.035Z,2.53
2023-01-11T08:52:28.911Z,3.00
2023-01-11T08:55:14.458Z,2.72
2023-01-11T08:57:59.849Z,2.53
2023-01-11T09:00:45.530Z,2.53
2023-01-11T09:03:31.696Z,2.47
2023-01-11T09:06:18.875Z,3.03
2023-01-11T09:09:04.619Z,2.72
2023-01-11T09:12:00.909Z,2.53
2023-01-11T09:14:46.628Z,2.20
2023-01-11T09:17:32.113Z,2.55
2023-01-11T09:20:17.782Z,2.03
2023-01-11T09:23:03.226Z,2.83
2023-01-11T09:25:48.704Z,2.80
2023-01-11T09:28:34.234Z,2.30
2023-01-11T09:31:19.777Z,2.90
2023-01-11T09:34:06.988Z,2.80
2023-01-11T09:36:52.957Z,2.65
2023-01-11T09:39:39.116Z,3.30
2023-01-11T09:42:39.402Z,3.00
2023-01-11T09:45:28.302Z,2.20
2023-01-11T09:48:43.508Z,2.78
2023-01-11T09:51:39.685Z,2.22
2023-01-11T09:54:27.433Z,2.38
2023-01-11T09:57:35.851Z,2.42
2023-01-11T10:00:40.789Z,2.55
2023-01-11T10:03:57.339Z,2.20
2023-01-11T10:07:21.437Z,3.03
2023-01-11T10:18:21.143Z,2.58
2023-01-11T10:18:26.025Z,3.50
2023-01-11T10:20:35.295Z,3.05
2023-01-11T10:23:41.642Z,2.75
2023-01-11T10:26:35.996Z,2.58
2023-01-11T10:29:59.538Z,2.92
2023-01-11T10:32:54.134Z,2.58
2023-01-11T10:36:33.014Z,3.13
2023-01-11T10:39:38.625Z,3.70
2023-01-11T10:42:28.851Z,3.03
2023-01-11T10:45:37.169Z,2.47
2023-01-11T10:48:37.062Z,2.03
2023-01-11T10:51:29.264Z,2.53
2023-01-11T10:54:27.012Z,2.88
2023-01-11T10:57:38.152Z,3.58
2023-01-11T11:00:48.865Z,3.22
2023-01-11T11:03:36.745Z,3.20
2023-01-11T11:06:51.536Z,2.55
2023-01-11T11:10:02.928Z,2.75
2023-01-11T11:13:22.679Z,2.92
2023-01-11T11:16:18.521Z,3.00
2023-01-11T11:19:03.948Z,2.75
2023-01-11T11:21:52.136Z,3.50
2023-01-11T11:24:42.879Z,3.35
2023-01-11T11:27:40.192Z,2.97
2023-01-11T11:30:33.719Z,3.58
2023-01-11T11:33:33.177Z,2.85
2023-01-11T11:36:18.764Z,2.60
2023-01-11T11:39:19.710Z,3.28
2023-01-11T11:42:16.408Z,3.17
2023-01-11T11:45:10.952Z,2.63
2023-01-11T11:48:05.957Z,2.97
2023-01-11T11:50:53.710Z,3.25
2023-01-11T11:53:48.098Z,3.50
2023-01-11T11:56:35.970Z,2.92
2023-01-11T11:59:23.911Z,2.97
2023-01-11T12:02:26.263Z,3.13
2023-01-11T12:07:57.494Z,3.42
2023-01-11T12:10:49.698Z,2.83
2023-01-11T12:16:31.957Z,3.28
2023-01-11T12:19:29.726Z,2.50
2023-01-11T12:22:20.327Z,2.65
2023-01-11T12:25:08.558Z,2.53
2023-01-11T12:28:34.282Z,2.13
2023-01-11T12:31:38.046Z,3.25
2023-01-11T12:34:51.036Z,2.42
2023-01-11T12:40:42.849Z,2.50
2023-01-11T12:43:53.217Z,2.42
2023-01-11T12:47:18.192Z,2.25
2023-01-11T12:50:15.403Z,2.58
2023-01-11T12:53:40.104Z,2.60
2023-01-11T12:57:04.262Z,2.75
2023-01-11T13:00:10.289Z,2.33
2023-01-11T13:03:17.090Z,3.25
2023-01-11T13:06:07.356Z,2.80
2023-01-11T13:09:20.056Z,3.00
2023-01-11T13:15:25.607Z,3.08
2023-01-11T13:18:39.261Z,3.05
2023-01-11T13:21:36.073Z,2.92
2023-01-11T13:24:27.269Z,3.45
2023-01-11T13:27:19.374Z,2.92
2023-01-11T13:30:05.416Z,2.93
2023-01-11T13:33:10.809Z,3.10
2023-01-11T13:36:15.035Z,3.25
2023-01-11T13:39:35.262Z,3.10
2023-01-11T13:42:43.323Z,2.95
2023-01-11T13:45:37.471Z,2.97
2023-01-11T13:48:46.131Z,3.28
2023-01-11T13:51:38.793Z,2.85
2023-01-11T13:54:56.727Z,2.80
2023-01-11T13:57:51.182Z,3.60
2023-01-11T14:00:45.811Z,2.83
2023-01-11T14:03:55.131Z,3.10
2023-01-11T14:06:54.185Z,2.92
2023-01-11T14:10:04.526Z,2.30
2023-01-11T14:13:53.304Z,2.63
2023-01-11T14:17:00.377Z,2.50
2023-01-11T14:20:12.241Z,2.75
2023-01-11T14:23:19.926Z,2.72
2023-01-11T14:26:21.210Z,3.00
2023-01-11T14:29:34.074Z,2.70
2023-01-11T14:32:47.845Z,2.15
2023-01-11T14:35:59.113Z,3.13
2023-01-11T14:38:56.156Z,2.97
2023-01-11T14:42:07.958Z,2.05
2023-01-11T14:45:16.668Z,2.95
2023-01-11T14:48:13.776Z,2.70
2023-01-11T14:51:30.649Z,2.17
2023-01-11T14:54:41.735Z,2.35
2023-01-11T14:57:44.884Z,2.45
2023-01-11T15:00:30.402Z,2.40
2023-01-11T15:03:23.662Z,2.67
2023-01-11T15:06:14.555Z,2.78
2023-01-11T15:09:00.330Z,2.55
2023-01-11T15:11:45.836Z,2.22
2023-01-11T15:14:37.298Z,2.95
2023-01-11T15:17:45.723Z,2.20
2023-01-11T15:20:33.665Z,2.88
2023-01-11T15:23:19.407Z,2.47
2023-01-11T15:26:07.830Z,2.90
2023-01-11T15:28:57.454Z,2.50
2023-01-11T15:31:54.793Z,2.70
2023-01-11T15:34:40.066Z,3.35
2023-01-11T15:37:32.601Z,2.67
2023-01-11T15:40:25.202Z,2.58
2023-01-11T15:43:22.388Z,3.72
2023-01-11T15:46:54.334Z,3.05
2023-01-11T15:50:06.300Z,2.80
2023-01-11T15:53:00.850Z,3.20
2023-01-11T15:55:49.573Z,2.88
2023-01-11T15:59:13.165Z,3.05
2023-01-11T16:02:13.819Z,3.28
2023-01-11T16:05:11.545Z,2.67
2023-01-11T16:08:25.528Z,3.60
2023-01-11T16:11:34.719Z,3.63
2023-01-11T16:14:54.905Z,3.58
2023-01-11T16:17:41.824Z,3.33
2023-01-11T16:20:28.791Z,2.95
2023-01-11T16:23:19.995Z,3.20
2023-01-11T16:26:07.670Z,3.33
2023-01-11T16:28:58.444Z,3.20
2023-01-11T16:32:00.467Z,3.38
2023-01-11T16:34:50.188Z,2.97
2023-01-11T16:37:43.711Z,3.40
2023-01-11T16:40:36.396Z,3.10
2023-01-11T16:43:34.004Z,3.35
2023-01-11T16:46:50.465Z,4.20
2023-01-11T16:49:37.033Z,3.75
2023-01-11T16:52:37.818Z,3.20
2023-01-11T16:55:37.779Z,3.53
2023-01-11T16:58:29.021Z,3.47
2023-01-11T17:01:15.400Z,3.65
2023-01-11T17:04:03.024Z,3.33
2023-01-11T17:06:48.524Z,3.00
2023-01-11T17:09:34.073Z,3.80
2023-01-11T17:12:23.161Z,3.20
2023-01-11T17:15:53.927Z,3.00
2023-01-11T17:18:41.018Z,3.20
2023-01-11T17:21:29.060Z,3.40
2023-01-11T17:24:15.427Z,3.05
2023-01-11T17:27:02.258Z,3.35
2023-01-11T17:29:49.175Z,3.22
2023-01-11T17:32:40.181Z,3.05
2023-01-11T17:35:33.775Z,3.92
2023-01-11T17:38:24.954Z,2.92
2023-01-11T17:41:30.890Z,3.08
2023-01-11T17:44:40.492Z,3.38
2023-01-11T17:47:26.431Z,3.70
2023-01-11T17:50:29.059Z,2.95
2023-01-11T17:53:16.520Z,4.47
2023-01-11T17:56:04.532Z,3.45
2023-01-11T17:58:49.801Z,3.65
2023-01-11T18:01:36.569Z,3.55
2023-01-11T18:04:23.665Z,3.40
2023-01-11T18:07:16.055Z,3.60
2023-01-11T18:10:03.797Z,3.50
2023-01-11T18:12:50.798Z,3.65
2023-01-11T18:15:37.901Z,4.07
2023-01-11T18:18:42.908Z,3.15
2023-01-11T18:21:41.233Z,2.97
2023-01-11T18:24:31.777Z,3.28
2023-01-11T18:27:28.390Z,2.78
2023-01-11T18:30:31.905Z,2.88
2023-01-11T18:33:19.889Z,3.83
2023-01-11T18:36:19.549Z,2.78
2023-01-11T18:39:12.204Z,2.60
2023-01-11T18:42:09.572Z,2.45
2023-01-11T18:44:55.264Z,2.88
2023-01-11T18:47:40.810Z,2.45
2023-01-11T18:50:26.421Z,2.70
2023-01-11T18:53:13.825Z,2.45
2023-01-11T18:55:59.117Z,2.42
2023-01-11T18:58:44.411Z,2.03
2023-01-11T19:01:33.388Z,2.28
2023-01-11T19:04:25.958Z,2.10
2023-01-11T19:07:12.537Z,2.75
2023-01-11T19:09:59.255Z,2.90
2023-01-11T19:12:45.813Z,2.97
2023-01-11T19:15:33.984Z,3.05
2023-01-11T19:18:19.599Z,2.72
2023-01-11T19:21:11.717Z,3.33
2023-01-11T19:23:58.109Z,2.60
2023-01-11T19:26:43.256Z,2.30
2023-01-11T19:29:28.723Z,2.83
2023-01-11T19:32:15.652Z,2.53
2023-01-11T19:35:01.396Z,2.95
2023-01-11T19:37:46.753Z,2.50
2023-01-11T19:40:32.259Z,2.88
2023-01-11T19:43:17.674Z,3.28
2023-01-11T19:46:04.078Z,2.70
2023-01-11T19:48:49.520Z,2.60
2023-01-11T19:51:35.024Z,3.25
2023-01-11T19:54:25.310Z,2.28
2023-01-11T19:57:12.221Z,2.45
2023-01-11T19:59:57.472Z,2.78
2023-01-11T20:02:43.027Z,2.60
2023-01-11T20:05:28.335Z,2.10
2023-01-11T20:08:13.936Z,2.60
2023-01-11T20:11:08.093Z,2.50
2023-01-11T20:13:53.802Z,2.38
2023-01-11T20:16:39.129Z,2.10
2023-01-11T20:19:24.683Z,2.35
2023-01-11T20:22:10.062Z,2.50
2023-01-11T20:24:56.051Z,2.08
2023-01-11T20:27:41.759Z,2.22
2023-01-11T20:30:27.056Z,2.20
2023-01-11T20:33:12.497Z,2.83
2023-01-11T20:35:57.956Z,2.10
2023-01-11T20:38:44.877Z,3.20
2023-01-11T20:41:48.970Z,2.50
2023-01-11T20:44:34.533Z,2.80
2023-01-11T20:47:20.225Z,2.35
2023-01-11T20:50:05.842Z,2.42
2023-01-11T20:52:51.893Z,2.05
2023-01-11T20:55:37.371Z,2.70
2023-01-11T20:58:23.067Z,2.60
2023-01-11T21:01:10.547Z,2.25
2023-01-11T21:04:00.448Z,2.22
2023-01-11T21:06:48.305Z,2.33
2023-01-11T21:09:33.819Z,2.38
2023-01-11T21:12:19.458Z,1.80
2023-01-11T21:15:08.707Z,1.85
2023-01-11T21:17:53.846Z,2.13
2023-01-11T21:20:39.637Z,1.92
2023-01-11T21:23:25.077Z,1.60
2023-01-11T21:26:18.339Z,1.67
2023-01-11T21:29:05.270Z,1.50
2023-01-11T21:31:50.764Z,1.88
2023-01-11T21:34:36.273Z,1.40
2023-01-11T21:37:24.695Z,1.95
2023-01-11T21:40:11.762Z,2.20
2023-01-11T21:42:57.525Z,2.25
2023-01-11T21:45:42.803Z,3.60
2023-01-11T21:48:28.467Z,2.70
2023-01-11T21:51:16.831Z,2.40
2023-01-11T21:54:07.176Z,2.95
2023-01-11T21:56:52.400Z,2.65
2023-01-11T21:59:37.799Z,2.67
2023-01-11T22:02:23.060Z,2.70
2023-01-11T22:05:09.251Z,2.65
2023-01-11T22:07:56.737Z,2.03
2023-01-11T22:10:42.201Z,3.10
2023-01-11T22:13:32.089Z,3.20
2023-01-11T22:16:18.606Z,3.50
2023-01-11T22:19:06.088Z,2.63
2023-01-11T22:21:51.598Z,3.13
2023-01-11T22:24:37.194Z,3.38
2023-01-11T22:27:22.818Z,3.50
2023-01-11T22:30:08.779Z,2.92
2023-01-11T22:32:54.025Z,2.67
2023-01-11T22:35:39.590Z,2.97
2023-01-11T22:38:24.921Z,2.85
2023-01-11T22:41:10.387Z,3.30
2023-01-11T22:43:55.666Z,3.03
2023-01-11T22:46:41.594Z,3.60
2023-01-11T22:49:27.054Z,2.70
2023-01-11T22:52:12.517Z,3.10
2023-01-11T22:54:57.988Z,2.20
2023-01-11T22:57:43.575Z,2.42
2023-01-11T23:00:28.908Z,3.00
2023-01-11T23:03:15.392Z,2.70
2023-01-11T23:06:01.040Z,2.50
2023-01-11T23:08:46.433Z,3.20
2023-01-11T23:11:55.693Z,3.50
2023-01-11T23:14:41.100Z,2.47
2023-01-11T23:17:26.959Z,2.80
2023-01-11T23:20:12.682Z,2.45
2023-01-11T23:22:57.924Z,2.83
2023-01-11T23:25:43.404Z,2.80
2023-01-11T23:28:30.678Z,3.15
2023-01-11T23:31:21.376Z,2.33
2023-01-11T23:34:08.321Z,3.67
2023-01-11T23:36:53.883Z,2.90
2023-01-11T23:39:39.130Z,2.67
2023-01-11T23:42:27.316Z,3.10
2023-01-11T23:45:12.406Z,3.17
2023-01-11T23:47:57.872Z,3.83
2023-01-11T23:50:43.336Z,3.00
2023-01-11T23:53:29.563Z,3.13
2023-01-11T23:56:16.079Z,3.25
2023-01-11T23:59:01.807Z,2.92
